Map

Track Data

SID SEASON NUMBER BASIN SUBBASIN NAME ISO_TIME NATURE LAT LON WMO_WIND WMO_PRES WMO_AGENCY TRACK_TYPE DIST2LAND LANDFALL IFLAG USA_AGENCY USA_ATCF_ID USA_LAT USA_LON USA_RECORD USA_STATUS USA_WIND USA_PRES USA_SSHS USA_R34_NE USA_R34_SE USA_R34_SW USA_R34_NW USA_R50_NE USA_R50_SE USA_R50_SW USA_R50_NW USA_R64_NE USA_R64_SE USA_R64_SW USA_R64_NW USA_POCI USA_ROCI USA_RMW USA_EYE TOKYO_LAT TOKYO_LON TOKYO_GRADE TOKYO_WIND TOKYO_PRES TOKYO_R50_DIR TOKYO_R50_LONG TOKYO_R50_SHORT TOKYO_R30_DIR TOKYO_R30_LONG TOKYO_R30_SHORT TOKYO_LAND CMA_LAT CMA_LON CMA_CAT CMA_WIND CMA_PRES HKO_LAT HKO_LON HKO_CAT HKO_WIND HKO_PRES NEWDELHI_LAT NEWDELHI_LON NEWDELHI_GRADE NEWDELHI_WIND NEWDELHI_PRES NEWDELHI_CI NEWDELHI_DP NEWDELHI_POCI REUNION_LAT REUNION_LON REUNION_TYPE REUNION_WIND REUNION_PRES REUNION_TNUM REUNION_CI REUNION_RMW REUNION_R34_NE REUNION_R34_SE REUNION_R34_SW REUNION_R34_NW REUNION_R50_NE REUNION_R50_SE REUNION_R50_SW REUNION_R50_NW REUNION_R64_NE REUNION_R64_SE REUNION_R64_SW REUNION_R64_NW BOM_LAT BOM_LON BOM_TYPE BOM_WIND BOM_PRES BOM_TNUM BOM_CI BOM_RMW BOM_R34_NE BOM_R34_SE BOM_R34_SW BOM_R34_NW BOM_R50_NE BOM_R50_SE BOM_R50_SW BOM_R50_NW BOM_R64_NE BOM_R64_SE BOM_R64_SW BOM_R64_NW BOM_ROCI BOM_POCI BOM_EYE BOM_POS_METHOD BOM_PRES_METHOD NADI_LAT NADI_LON NADI_CAT NADI_WIND NADI_PRES WELLINGTON_LAT WELLINGTON_LON WELLINGTON_WIND WELLINGTON_PRES DS824_LAT DS824_LON DS824_STAGE DS824_WIND DS824_PRES TD9636_LAT TD9636_LON TD9636_STAGE TD9636_WIND TD9636_PRES TD9635_LAT TD9635_LON TD9635_WIND TD9635_PRES TD9635_ROCI NEUMANN_LAT NEUMANN_LON NEUMANN_CLASS NEUMANN_WIND NEUMANN_PRES MLC_LAT MLC_LON MLC_CLASS MLC_WIND MLC_PRES USA_GUST BOM_GUST BOM_GUST_PER REUNION_GUST REUNION_GUST_PER USA_SEAHGT USA_SEARAD_NE USA_SEARAD_SE USA_SEARAD_SW USA_SEARAD_NW STORM_SPEED STORM_DIR
1934203N32281 1934 34 NA NA NOT_NAMED 1934-07-22 06:00:00 TS 32.1000 -79.4000 25 hurdat_atl main 79 72 O_____________ hurdat_atl AL031934 32.1000 -79.4000 TD 25 -1 5 222
1934203N32281 1934 34 NA NA NOT_NAMED 1934-07-22 09:00:00 TS 31.9226 -79.5851 main 86 82 P_____________ AL031934 31.9226 -79.5851 TD 25 -1 5 220
1934203N32281 1934 34 NA NA NOT_NAMED 1934-07-22 12:00:00 TS 31.7000 -79.8000 25 hurdat_atl main 100 93 O_____________ hurdat_atl AL031934 31.7000 -79.8000 TD 25 -1 7 218
1934203N32281 1934 34 NA NA NOT_NAMED 1934-07-22 15:00:00 TS 31.3949 -80.0697 main 93 91 P_____________ AL031934 31.3949 -80.0697 TD 27 -1 9 216
1934203N32281 1934 34 NA NA NOT_NAMED 1934-07-22 18:00:00 TS 31.0000 -80.4000 30 hurdat_atl main 91 67 O_____________ hurdat_atl AL031934 31.0000 -80.4000 TD 30 -1 10 213
1934203N32281 1934 34 NA NA NOT_NAMED 1934-07-22 21:00:00 TS 30.5218 -80.7318 main 70 19 P_____________ AL031934 30.5218 -80.7318 TD 30 -1 12 215
1934203N32281 1934 34 NA NA NOT_NAMED 1934-07-23 00:00:00 TS 30.0000 -81.2000 30 hurdat_atl main 19 0 O_____________ hurdat_atl AL031934 30.0000 -81.2000 TD 30 -1 14 224
1934203N32281 1934 34 NA NA NOT_NAMED 1934-07-23 03:00:00 TS 29.5002 -81.8900 main 0 0 P_____________ AL031934 29.5002 -81.8900 TD 30 -1 16 233
1934203N32281 1934 34 NA GM NOT_NAMED 1934-07-23 06:00:00 TS 29.0000 -82.7000 30 hurdat_atl main 0 0 O_____________ hurdat_atl AL031934 29.0000 -82.7000 TD 30 -1 18 233
1934203N32281 1934 34 NA GM NOT_NAMED 1934-07-23 09:00:00 TS 28.4547 -83.4928 main 81 76 P_____________ AL031934 28.4547 -83.4928 TD 32 -1 17 235
1934203N32281 1934 34 NA GM NOT_NAMED 1934-07-23 12:00:00 TS 28.0000 -84.3000 35 hurdat_atl main 137 137 O_____________ hurdat_atl AL031934 28.0000 -84.3000 TS 35 0 16 243
1934203N32281 1934 34 NA GM NOT_NAMED 1934-07-23 15:00:00 TS 27.7471 -85.0989 main 217 217 P_____________ AL031934 27.7471 -85.0989 TS 35 0 15 254
1934203N32281 1934 34 NA GM NOT_NAMED 1934-07-23 18:00:00 TS 27.6000 -85.9000 35 hurdat_atl main 239 239 O_____________ hurdat_atl AL031934 27.6000 -85.9000 TS 35 0 15 257
1934203N32281 1934 34 NA GM NOT_NAMED 1934-07-23 21:00:00 TS 27.4272 -86.7075 main 286 246 P_____________ AL031934 27.4272 -86.7075 TS 37 0 15 258
1934203N32281 1934 34 NA GM NOT_NAMED 1934-07-24 00:00:00 TS 27.3000 -87.5000 40 hurdat_atl main 246 219 O_____________ hurdat_atl AL031934 27.3000 -87.5000 TS 40 0 14 262
1934203N32281 1934 34 NA GM NOT_NAMED 1934-07-24 03:00:00 TS 27.2270 -88.2572 main 215 201 P_____________ AL031934 27.2270 -88.2572 TS 45 0 13 266
1934203N32281 1934 34 NA GM NOT_NAMED 1934-07-24 06:00:00 TS 27.2000 -89.0000 50 hurdat_atl main 201 200 O_____________ hurdat_atl AL031934 27.2000 -89.0000 TS 50 0 13 268
1934203N32281 1934 34 NA GM NOT_NAMED 1934-07-24 09:00:00 TS 27.1847 -89.7575 main 212 212 P_____________ AL031934 27.1847 -89.7575 TS 52 0 13 270
1934203N32281 1934 34 NA GM NOT_NAMED 1934-07-24 12:00:00 TS 27.2000 -90.5000 55 hurdat_atl main 212 212 O_____________ hurdat_atl AL031934 27.2000 -90.5000 TS 55 0 13 272
1934203N32281 1934 34 NA GM NOT_NAMED 1934-07-24 15:00:00 TS 27.2271 -91.2152 main 214 209 P_____________ AL031934 27.2271 -91.2152 TS 57 0 12 275
1934203N32281 1934 34 NA GM NOT_NAMED 1934-07-24 18:00:00 TS 27.3000 -91.9000 60 hurdat_atl main 223 223 O_____________ hurdat_atl AL031934 27.3000 -91.9000 TS 60 0 12 280
1934203N32281 1934 34 NA GM NOT_NAMED 1934-07-24 21:00:00 TS 27.4347 -92.5649 main 236 222 P_____________ AL031934 27.4347 -92.5649 TS 62 0 12 285
1934203N32281 1934 34 NA GM NOT_NAMED 1934-07-25 00:00:00 TS 27.6000 -93.2000 65 hurdat_atl main 229 191 O_____________ hurdat_atl AL031934 27.6000 -93.2000 HU 65 1 11 287
1934203N32281 1934 34 NA GM NOT_NAMED 1934-07-25 03:00:00 TS 27.7645 -93.8000 main 191 145 P_____________ AL031934 27.7645 -93.8000 HU 67 1 11 286
1934203N32281 1934 34 NA GM NOT_NAMED 1934-07-25 06:00:00 TS 27.9000 -94.4000 70 hurdat_atl main 145 107 O_____________ hurdat_atl AL031934 27.9000 -94.4000 HU 70 1 11 280
1934203N32281 1934 34 NA GM NOT_NAMED 1934-07-25 09:00:00 TS 27.9628 -95.0414 main 107 73 P_____________ AL031934 27.9628 -95.0414 HU 72 1 12 275
1934203N32281 1934 34 NA GM NOT_NAMED 1934-07-25 12:00:00 TS 28.0000 -95.7000 75 hurdat_atl main 73 34 O_____________ hurdat_atl AL031934 28.0000 -95.7000 HU 75 1 12 275
1934203N32281 1934 34 NA GM NOT_NAMED 1934-07-25 15:00:00 TS 28.0734 -96.3733 main 33 9 P_____________ AL031934 28.0734 -96.3733 HU 75 1 12 276
1934203N32281 1934 34 NA GM NOT_NAMED 1934-07-25 17:00:00 TS 28.1000 -96.8000 75 979 hurdat_atl main 9 0 O_____________ hurdat_atl AL031934 28.1000 -96.8000 L HU 75 979 1 11 273
1934203N32281 1934 34 NA GM NOT_NAMED 1934-07-25 18:00:00 TS 28.1000 -97.0000 75 hurdat_atl main 0 0 O_____________ hurdat_atl AL031934 28.1000 -97.0000 HU 75 1 12 273
1934203N32281 1934 34 NA NA NOT_NAMED 1934-07-25 21:00:00 TS 28.1365 -97.6729 main 0 0 P_____________ AL031934 28.1365 -97.6729 HU 65 1 12 275
1934203N32281 1934 34 NA NA NOT_NAMED 1934-07-26 00:00:00 TS 28.2000 -98.4000 55 hurdat_atl main 0 0 O_____________ hurdat_atl AL031934 28.2000 -98.4000 TS 55 0 13 275
1934203N32281 1934 34 NA NA NOT_NAMED 1934-07-26 03:00:00 TS 28.2423 -99.1077 main 0 0 P_____________ AL031934 28.2423 -99.1077 TS 50 0 12 275
1934203N32281 1934 34 NA NA NOT_NAMED 1934-07-26 06:00:00 TS 28.3000 -99.8000 45 hurdat_atl main 0 0 O_____________ hurdat_atl AL031934 28.3000 -99.8000 TS 45 0 12 278
1934203N32281 1934 34 NA NA NOT_NAMED 1934-07-26 09:00:00 TS 28.3996 -100.457 main 0 0 P_____________ AL031934 28.3996 -100.457 TS 42 0 12 280
1934203N32281 1934 34 NA NA NOT_NAMED 1934-07-26 12:00:00 TS 28.5000 -101.100 40 hurdat_atl main 0 0 O_____________ hurdat_atl AL031934 28.5000 -101.100 TS 40 0 11 278
1934203N32281 1934 34 NA NA NOT_NAMED 1934-07-26 15:00:00 TS 28.5632 -101.748 main 0 0 P_____________ AL031934 28.5632 -101.748 TS 35 0 11 275
1934203N32281 1934 34 NA NA NOT_NAMED 1934-07-26 18:00:00 TS 28.6000 -102.400 30 hurdat_atl main 0 O_____________ hurdat_atl AL031934 28.6000 -102.400 TD 30 -1 11 274

About IBTrACS Database

This database is a web-friendly format of International Best Track Archive for Climate Stewardship (IBTrACS), a global best track data archive curated by NOAA dating back to 1842.

Updated: 2021-10-21